createdAt,value
2023-11-21T00:00:13.175Z,99879.63
2023-11-21T00:03:01.181Z,99893.72
2023-11-21T00:05:29.112Z,99900.41
2023-11-21T00:07:56.559Z,99887.03
2023-11-21T00:10:24.460Z,99882.03
2023-11-21T00:12:51.874Z,99908.81
2023-11-21T00:15:19.986Z,99914.44
2023-11-21T00:17:47.882Z,99907.22
2023-11-21T00:20:15.509Z,99883.78
2023-11-21T00:22:43.109Z,99887.09
2023-11-21T00:25:11.441Z,99915.66
2023-11-21T00:27:39.208Z,99918.88
2023-11-21T00:30:07.955Z,99916.66
2023-11-21T00:32:37.111Z,99907.28
2023-11-21T00:35:07.210Z,99906.09
2023-11-21T00:37:34.677Z,99926.06
2023-11-21T00:40:11.655Z,99926.75
2023-11-21T00:42:39.162Z,99927.34
2023-11-21T00:45:07.931Z,99919.97
2023-11-21T00:47:35.543Z,99909.31
2023-11-21T00:50:03.257Z,99918.22
2023-11-21T00:52:31.050Z,99908.47
2023-11-21T00:55:01.213Z,99920.88
2023-11-21T00:57:28.730Z,99910.38
2023-11-21T00:59:56.876Z,99912.09
2023-11-21T01:02:24.270Z,99902.28
2023-11-21T01:04:52.062Z,99931.34
2023-11-21T01:07:21.859Z,99929.56
2023-11-21T01:09:49.949Z,99913.09
2023-11-21T01:12:18.774Z,99917.22
2023-11-21T01:14:46.693Z,99921.09
2023-11-21T01:17:14.143Z,99944.88
2023-11-21T01:19:42.763Z,99933.56
2023-11-21T01:22:10.546Z,99942.53
2023-11-21T01:24:38.294Z,99954.19
2023-11-21T01:27:05.829Z,99945.16
2023-11-21T01:29:33.596Z,99954.69
2023-11-21T01:32:00.971Z,99935.88
2023-11-21T01:34:28.800Z,99950.06
2023-11-21T01:36:56.085Z,99961.78
2023-11-21T01:39:25.334Z,99938.06
2023-11-21T01:41:53.272Z,99958.53
2023-11-21T01:44:20.983Z,99966.94
2023-11-21T01:46:49.391Z,99945.03
2023-11-21T01:49:17.462Z,99977.88
2023-11-21T01:51:50.349Z,99957.25
2023-11-21T01:54:20.098Z,99971.38
2023-11-21T01:56:48.394Z,99970.22
2023-11-21T01:59:22.788Z,99973.72
2023-11-21T02:01:51.687Z,99970.84
2023-11-21T02:04:21.383Z,99979.63
2023-11-21T02:06:48.983Z,99978.28
2023-11-21T02:09:16.869Z,99979.94
2023-11-21T02:11:45.302Z,99977.72
2023-11-21T02:14:15.048Z,99958.28
2023-11-21T02:16:42.704Z,99993.19
2023-11-21T02:19:26.645Z,99971.25
2023-11-21T02:21:55.020Z,99966.56
2023-11-21T02:24:23.751Z,99979.84
2023-11-21T02:26:54.894Z,99998.81
2023-11-21T02:29:23.486Z,99991.72
2023-11-21T02:31:55.931Z,99991.19
2023-11-21T02:34:26.642Z,100006.38
2023-11-21T02:36:55.334Z,99983.69
2023-11-21T02:39:26.178Z,100000.47
2023-11-21T02:41:53.647Z,100000.28
2023-11-21T02:44:21.404Z,99975.50
2023-11-21T02:46:49.085Z,99991.34
2023-11-21T02:49:16.824Z,100004.34
2023-11-21T02:51:44.779Z,99993.19
2023-11-21T02:54:12.612Z,99986.31
2023-11-21T02:56:41.309Z,100013.47
2023-11-21T02:59:09.023Z,100012.34
2023-11-21T03:01:36.510Z,99994.97
2023-11-21T03:04:04.598Z,99997.16
2023-11-21T03:06:32.138Z,99999.28
2023-11-21T03:08:59.823Z,99999.81
2023-11-21T03:11:27.490Z,100001.84
2023-11-21T03:13:55.254Z,100025.91
2023-11-21T03:16:22.864Z,100028.88
2023-11-21T03:18:51.338Z,100032.19
2023-11-21T03:21:18.993Z,100034.00
2023-11-21T03:23:46.729Z,100033.56
2023-11-21T03:26:14.507Z,100016.72
2023-11-21T03:28:42.387Z,100038.41
2023-11-21T03:31:10.375Z,100040.31
2023-11-21T03:33:38.228Z,100034.94
2023-11-21T03:36:05.854Z,100019.25
2023-11-21T03:38:33.442Z,100027.53
2023-11-21T03:41:00.862Z,100011.50
2023-11-21T03:43:30.603Z,100011.81
2023-11-21T03:45:57.995Z,100008.94
2023-11-21T03:48:25.519Z,100031.97
2023-11-21T03:50:52.782Z,100022.38
2023-11-21T03:53:20.381Z,100037.19
2023-11-21T03:55:47.875Z,100032.44
2023-11-21T03:58:15.564Z,100045.97
2023-11-21T04:00:42.863Z,100045.38
2023-11-21T04:03:10.598Z,100035.69
2023-11-21T04:05:38.007Z,100033.00
2023-11-21T04:08:05.701Z,100053.22
2023-11-21T04:10:33.178Z,100042.25
2023-11-21T04:13:01.655Z,100036.03
2023-11-21T04:15:29.112Z,100058.25
2023-11-21T04:17:58.008Z,100041.34
2023-11-21T04:20:25.627Z,100066.44
2023-11-21T04:22:53.313Z,100079.75
2023-11-21T04:25:20.964Z,100063.88
2023-11-21T04:27:48.886Z,100050.06
2023-11-21T04:30:16.363Z,100054.44
2023-11-21T04:32:44.118Z,100050.66
2023-11-21T04:35:11.933Z,100060.03
2023-11-21T04:37:39.696Z,100069.03
2023-11-21T04:40:08.513Z,100086.84
2023-11-21T04:42:37.580Z,100093.16
2023-11-21T04:45:09.961Z,100079.59
2023-11-21T04:47:37.761Z,100083.78
2023-11-21T04:50:07.244Z,100068.16
2023-11-21T04:52:35.088Z,100097.16
2023-11-21T04:55:03.814Z,100075.91
2023-11-21T04:57:32.415Z,100099.13
2023-11-21T04:59:59.876Z,100101.78
2023-11-21T05:02:33.990Z,100077.19
2023-11-21T05:05:05.427Z,100111.31
2023-11-21T05:07:33.821Z,100120.53
2023-11-21T05:10:01.194Z,100103.28
2023-11-21T05:12:28.918Z,100127.03
2023-11-21T05:14:57.185Z,100113.72
2023-11-21T05:17:24.838Z,100122.09
2023-11-21T05:19:53.033Z,100132.84
2023-11-21T05:22:21.496Z,100116.44
2023-11-21T05:24:48.839Z,100126.59
2023-11-21T05:27:17.277Z,100143.59
2023-11-21T05:29:44.543Z,100129.84
2023-11-21T05:32:12.265Z,100164.94
2023-11-21T05:34:39.732Z,100171.53
2023-11-21T05:37:07.482Z,100181.69
2023-11-21T05:39:34.833Z,100181.34
2023-11-21T05:42:02.973Z,100164.84
2023-11-21T05:44:30.334Z,100152.13
2023-11-21T05:47:00.112Z,100185.28
2023-11-21T05:49:27.783Z,100186.47
2023-11-21T05:51:55.514Z,100171.94
2023-11-21T05:54:23.850Z,100188.09
2023-11-21T05:56:51.524Z,100197.91
2023-11-21T05:59:20.689Z,100188.59
2023-11-21T06:01:49.655Z,100212.88
2023-11-21T06:04:17.103Z,100196.53
2023-11-21T06:06:45.381Z,100216.34
2023-11-21T06:09:13.281Z,100219.38
2023-11-21T06:11:41.002Z,100200.47
2023-11-21T06:14:10.438Z,100220.97
2023-11-21T06:16:38.165Z,100212.25
2023-11-21T06:19:06.642Z,100220.81
2023-11-21T06:21:35.152Z,100232.94
2023-11-21T06:24:02.840Z,100251.03
2023-11-21T06:26:30.418Z,100269.66
2023-11-21T06:28:58.321Z,100260.44
2023-11-21T06:31:26.107Z,100241.25
2023-11-21T06:33:54.177Z,100274.13
2023-11-21T06:36:22.148Z,100254.25
2023-11-21T06:38:49.554Z,100284.16
2023-11-21T06:41:17.167Z,100288.56
2023-11-21T06:43:47.920Z,100293.63
2023-11-21T06:46:20.312Z,100296.28
2023-11-21T06:48:47.840Z,100303.03
2023-11-21T06:51:15.530Z,100307.19
2023-11-21T06:53:42.858Z,100299.34
2023-11-21T06:56:18.175Z,100294.88
2023-11-21T06:58:47.120Z,100321.72
2023-11-21T07:01:14.996Z,100326.16
2023-11-21T07:03:42.820Z,100310.47
2023-11-21T07:06:10.597Z,100326.53
2023-11-21T07:08:38.394Z,100348.91
2023-11-21T07:11:06.195Z,100347.38
2023-11-21T07:13:33.564Z,100326.41
2023-11-21T07:16:01.421Z,100323.97
2023-11-21T07:18:28.919Z,100357.50
2023-11-21T07:20:56.613Z,100326.00
2023-11-21T07:23:24.161Z,100349.44
2023-11-21T07:25:51.871Z,100332.22
2023-11-21T07:28:19.385Z,100354.66
2023-11-21T07:30:46.977Z,100348.06
2023-11-21T07:33:14.306Z,100359.72
2023-11-21T07:35:42.017Z,100355.44
2023-11-21T07:38:09.360Z,100367.41
2023-11-21T07:40:37.586Z,100368.56
2023-11-21T07:43:04.873Z,100373.44
2023-11-21T07:45:32.550Z,100363.53
2023-11-21T07:48:02.102Z,100354.47
2023-11-21T07:50:29.966Z,100363.16
2023-11-21T07:52:59.150Z,100349.84
2023-11-21T07:55:27.921Z,100365.91
2023-11-21T07:57:55.235Z,100362.09
2023-11-21T08:00:22.907Z,100372.44
2023-11-21T08:02:50.399Z,100368.59
2023-11-21T08:05:25.019Z,100359.38
2023-11-21T08:07:55.912Z,100358.75
2023-11-21T08:10:23.762Z,100369.22
2023-11-21T08:12:51.958Z,100372.75
2023-11-21T08:15:19.920Z,100381.28
2023-11-21T08:17:48.199Z,100373.63
2023-11-21T08:20:19.338Z,100378.00
2023-11-21T08:22:49.082Z,100349.84
2023-11-21T08:25:18.645Z,100353.84
2023-11-21T08:27:46.109Z,100380.16
2023-11-21T08:30:15.507Z,100386.25
2023-11-21T08:32:42.867Z,100387.44
2023-11-21T08:35:13.617Z,100381.81
2023-11-21T08:37:41.506Z,100388.59
2023-11-21T08:40:10.750Z,100379.38
2023-11-21T08:42:38.775Z,100377.09
2023-11-21T08:45:07.280Z,100400.41
2023-11-21T08:47:34.717Z,100408.53
2023-11-21T08:50:03.187Z,100405.59
2023-11-21T08:52:30.885Z,100416.28
2023-11-21T08:54:58.609Z,100434.66
2023-11-21T08:57:26.881Z,100412.88
2023-11-21T08:59:56.770Z,100410.50
2023-11-21T09:02:24.752Z,100419.81
2023-11-21T09:04:53.886Z,100427.78
2023-11-21T09:07:21.800Z,100414.56
2023-11-21T09:09:49.996Z,100409.72
2023-11-21T09:12:18.174Z,100426.09
2023-11-21T09:14:45.771Z,100416.38
2023-11-21T09:17:13.302Z,100405.53
2023-11-21T09:19:41.848Z,100428.19
2023-11-21T09:22:09.281Z,100425.31
2023-11-21T09:24:38.013Z,100426.78
2023-11-21T09:27:06.623Z,100429.38
2023-11-21T09:29:34.368Z,100448.38
2023-11-21T09:32:02.572Z,100431.00
2023-11-21T09:34:30.499Z,100421.06
2023-11-21T09:36:57.898Z,100419.03
2023-11-21T09:39:25.810Z,100423.22
2023-11-21T09:42:00.150Z,100436.91
2023-11-21T09:44:45.190Z,100444.19
2023-11-21T09:47:17.497Z,100434.03
2023-11-21T09:49:50.687Z,100418.13
2023-11-21T09:52:26.861Z,100429.84
2023-11-21T09:54:56.139Z,100401.28
2023-11-21T09:57:24.794Z,100412.13
2023-11-21T10:00:00.607Z,100419.34
2023-11-21T10:02:33.878Z,100431.13
2023-11-21T10:05:02.136Z,100425.75
2023-11-21T10:07:32.083Z,100435.22
2023-11-21T10:10:01.997Z,100447.91
2023-11-21T10:12:31.011Z,100451.25
2023-11-21T10:15:01.855Z,100443.31
2023-11-21T10:17:37.538Z,100457.34
2023-11-21T10:20:12.677Z,100454.59
2023-11-21T10:22:44.502Z,100431.84
2023-11-21T10:25:15.608Z,100452.41
2023-11-21T10:27:44.332Z,100436.03
2023-11-21T10:30:17.235Z,100454.06
2023-11-21T10:32:44.843Z,100432.69
2023-11-21T10:35:13.743Z,100463.63
2023-11-21T10:37:41.681Z,100431.28
2023-11-21T10:40:13.693Z,100465.63
2023-11-21T10:42:41.905Z,100467.84
2023-11-21T10:45:16.204Z,100464.59
2023-11-21T10:47:45.481Z,100462.53
2023-11-21T10:50:13.376Z,100469.00
2023-11-21T10:52:48.068Z,100461.94
2023-11-21T10:55:22.803Z,100471.25
2023-11-21T10:57:53.676Z,100462.41
2023-11-21T11:00:25.316Z,100467.50
2023-11-21T11:02:55.722Z,100456.53
2023-11-21T11:05:25.138Z,100457.91
2023-11-21T11:08:03.204Z,100491.66
2023-11-21T11:10:31.148Z,100461.81
2023-11-21T11:12:59.632Z,100503.22
2023-11-21T11:15:28.634Z,100467.97
2023-11-21T11:17:59.697Z,100479.22
2023-11-21T11:20:34.727Z,100463.63
2023-11-21T11:23:14.354Z,100487.72
2023-11-21T11:25:42.057Z,100491.81
2023-11-21T11:28:15.512Z,100470.97
2023-11-21T11:31:06.794Z,100500.38
2023-11-21T11:33:49.750Z,100507.56
2023-11-21T11:36:26.896Z,100505.34
2023-11-21T11:38:57.235Z,100507.00
2023-11-21T11:41:33.585Z,100497.72
2023-11-21T11:44:05.656Z,100482.06
2023-11-21T11:46:46.696Z,100484.41
2023-11-21T11:49:29.428Z,100524.88
2023-11-21T11:52:35.686Z,100516.06
2023-11-21T11:55:05.443Z,100508.69
2023-11-21T11:57:36.254Z,100505.94
2023-11-21T12:00:17.945Z,100517.06
2023-11-21T12:02:46.755Z,100500.91
2023-11-21T12:05:24.836Z,100516.47
2023-11-21T12:07:58.666Z,100502.28
2023-11-21T12:10:41.858Z,100530.78
2023-11-21T12:13:11.731Z,100516.38
2023-11-21T12:15:42.062Z,100522.06
2023-11-21T12:18:09.861Z,100516.38
2023-11-21T12:20:40.496Z,100534.88
2023-11-21T12:23:10.690Z,100493.97
2023-11-21T12:25:39.489Z,100515.47
2023-11-21T12:28:07.431Z,100522.81
2023-11-21T12:30:37.301Z,100536.66
2023-11-21T12:33:05.744Z,100531.44
2023-11-21T12:35:35.535Z,100535.41
2023-11-21T12:38:06.284Z,100550.56
2023-11-21T12:40:34.139Z,100531.47
2023-11-21T12:43:05.566Z,100512.44
2023-11-21T12:45:33.502Z,100527.44
2023-11-21T12:48:10.264Z,100524.78
2023-11-21T12:50:39.272Z,100544.81
2023-11-21T12:53:13.784Z,100556.44
2023-11-21T12:55:43.395Z,100556.81
2023-11-21T12:58:12.856Z,100547.56
2023-11-21T13:00:44.037Z,100540.56
2023-11-21T13:03:17.204Z,100554.81
2023-11-21T13:05:49.216Z,100535.97
2023-11-21T13:08:21.356Z,100566.47
2023-11-21T13:10:55.577Z,100550.06
2023-11-21T13:13:25.564Z,100567.97
2023-11-21T13:15:57.491Z,100568.44
2023-11-21T13:18:28.090Z,100554.75
2023-11-21T13:21:00.976Z,100579.03
2023-11-21T13:23:30.575Z,100562.00
2023-11-21T13:26:02.772Z,100572.88
2023-11-21T13:28:36.362Z,100563.69
2023-11-21T13:31:11.796Z,100558.22
2023-11-21T13:33:42.507Z,100584.25
2023-11-21T13:36:11.306Z,100571.31
2023-11-21T13:38:44.072Z,100589.50
2023-11-21T13:41:13.849Z,100591.53
2023-11-21T13:43:45.229Z,100572.47
2023-11-21T13:46:18.503Z,100569.03
2023-11-21T13:48:52.508Z,100572.81
2023-11-21T13:51:21.630Z,100594.66
2023-11-21T13:53:52.223Z,100571.97
2023-11-21T13:56:27.925Z,100580.00
2023-11-21T13:58:57.014Z,100581.53
2023-11-21T14:01:31.973Z,100606.88
2023-11-21T14:04:20.920Z,100584.28
2023-11-21T14:06:55.978Z,100591.13
2023-11-21T14:09:26.951Z,100590.34
2023-11-21T14:11:58.111Z,100614.31
2023-11-21T14:14:27.163Z,100615.53
2023-11-21T14:16:55.074Z,100618.03
2023-11-21T14:19:26.836Z,100626.59
2023-11-21T14:21:54.651Z,100620.69
2023-11-21T14:24:24.847Z,100610.81
2023-11-21T14:26:52.574Z,100607.38
2023-11-21T14:29:25.168Z,100614.06
2023-11-21T14:31:54.930Z,100604.81
2023-11-21T14:34:23.542Z,100615.69
2023-11-21T14:36:51.725Z,100630.84
2023-11-21T14:39:27.859Z,100612.47
2023-11-21T14:42:00.620Z,100629.94
2023-11-21T14:44:34.100Z,100625.63
2023-11-21T14:47:04.583Z,100602.41
2023-11-21T14:49:43.001Z,100611.34
2023-11-21T14:52:27.144Z,100620.44
2023-11-21T14:55:14.742Z,100619.47
2023-11-21T14:57:42.181Z,100627.50
2023-11-21T15:00:30.490Z,100615.13
2023-11-21T15:02:58.005Z,100633.78
2023-11-21T15:05:28.269Z,100640.09
2023-11-21T15:07:58.342Z,100626.63
2023-11-21T15:10:39.525Z,100660.66
2023-11-21T15:13:11.396Z,100660.16
2023-11-21T15:15:40.792Z,100659.56
2023-11-21T15:18:08.312Z,100667.69
2023-11-21T15:20:36.278Z,100664.25
2023-11-21T15:23:05.910Z,100659.94
2023-11-21T15:25:33.901Z,100664.66
2023-11-21T15:28:01.292Z,100691.97
2023-11-21T15:30:33.605Z,100684.47
2023-11-21T15:33:00.853Z,100678.78
2023-11-21T15:35:31.992Z,100692.88
2023-11-21T15:38:00.993Z,100674.66
2023-11-21T15:40:29.141Z,100708.41
2023-11-21T15:42:56.543Z,100679.72
2023-11-21T15:45:27.209Z,100714.31
2023-11-21T15:47:54.932Z,100692.69
2023-11-21T15:50:22.640Z,100711.44
2023-11-21T15:52:57.347Z,100732.06
2023-11-21T15:55:26.951Z,100705.53
2023-11-21T15:57:54.370Z,100715.09
2023-11-21T16:00:24.150Z,100733.31
2023-11-21T16:02:52.180Z,100749.25
2023-11-21T16:05:20.373Z,100751.28
2023-11-21T16:07:48.484Z,100754.25
2023-11-21T16:10:16.980Z,100745.50
2023-11-21T16:12:44.350Z,100773.13
2023-11-21T16:15:13.212Z,100762.59
2023-11-21T16:17:43.037Z,100783.50
2023-11-21T16:20:14.009Z,100784.59
2023-11-21T16:22:42.083Z,100779.44
2023-11-21T16:25:14.291Z,100768.75
2023-11-21T16:27:42.052Z,100787.28
2023-11-21T16:30:10.106Z,100783.69
2023-11-21T16:32:38.062Z,100797.66
2023-11-21T16:35:06.405Z,100803.22
2023-11-21T16:37:33.857Z,100799.63
2023-11-21T16:40:01.592Z,100785.19
2023-11-21T16:42:31.632Z,100812.69
2023-11-21T16:44:59.454Z,100811.16
2023-11-21T16:47:29.425Z,100816.41
2023-11-21T16:49:59.531Z,100795.91
2023-11-21T16:52:27.504Z,100822.94
2023-11-21T16:54:55.482Z,100825.13
2023-11-21T16:57:23.042Z,100823.19
2023-11-21T16:59:52.162Z,100804.09
2023-11-21T17:02:20.529Z,100815.38
2023-11-21T17:04:50.567Z,100818.00
2023-11-21T17:07:24.203Z,100814.25
2023-11-21T17:09:52.244Z,100812.63
2023-11-21T17:12:20.035Z,100807.75
2023-11-21T17:14:50.499Z,100845.72
2023-11-21T17:17:18.405Z,100847.16
2023-11-21T17:19:46.179Z,100860.53
2023-11-21T17:22:13.777Z,100865.69
2023-11-21T17:24:43.763Z,100867.25
2023-11-21T17:27:11.938Z,100863.56
2023-11-21T17:29:40.132Z,100850.59
2023-11-21T17:32:07.580Z,100864.63
2023-11-21T17:34:35.406Z,100864.38
2023-11-21T17:37:05.343Z,100872.38
2023-11-21T17:39:33.606Z,100881.81
2023-11-21T17:42:01.999Z,100867.44
2023-11-21T17:44:29.870Z,100897.59
2023-11-21T17:46:57.426Z,100884.63
2023-11-21T17:49:25.374Z,100874.72
2023-11-21T17:51:52.974Z,100907.50
2023-11-21T17:54:20.920Z,100909.44
2023-11-21T17:56:50.522Z,100888.34
2023-11-21T17:59:18.262Z,100925.47
2023-11-21T18:01:48.179Z,100925.94
2023-11-21T18:04:16.043Z,100923.53
2023-11-21T18:06:44.096Z,100916.31
2023-11-21T18:09:12.123Z,100928.38
2023-11-21T18:11:39.959Z,100926.34
2023-11-21T18:14:11.122Z,100919.38
2023-11-21T18:16:39.748Z,100935.84
2023-11-21T18:19:08.074Z,100950.41
2023-11-21T18:21:39.006Z,100950.88
2023-11-21T18:24:08.627Z,100955.72
2023-11-21T18:26:36.147Z,100941.75
2023-11-21T18:29:04.084Z,100962.94
2023-11-21T18:31:31.808Z,100976.66
2023-11-21T18:33:59.577Z,100958.59
2023-11-21T18:36:27.010Z,100997.97
2023-11-21T18:38:55.045Z,100991.16
2023-11-21T18:41:24.395Z,100977.75
2023-11-21T18:43:52.313Z,100996.63
2023-11-21T18:46:21.192Z,101015.03
2023-11-21T18:48:50.450Z,101012.72
2023-11-21T18:51:18.066Z,101021.34
2023-11-21T18:53:45.704Z,101027.19
2023-11-21T18:56:22.468Z,101039.63
2023-11-21T18:58:50.311Z,101033.66
2023-11-21T19:01:32.080Z,101033.28
2023-11-21T19:04:00.374Z,101039.50
2023-11-21T19:06:28.304Z,101047.44
2023-11-21T19:08:56.167Z,101061.78
2023-11-21T19:11:24.304Z,101050.16
2023-11-21T19:13:53.330Z,101026.66
2023-11-21T19:16:22.319Z,101053.28
2023-11-21T19:18:52.937Z,101043.25
2023-11-21T19:21:20.885Z,101051.38
2023-11-21T19:23:49.953Z,101077.34
2023-11-21T19:26:17.513Z,101077.19
2023-11-21T19:28:45.862Z,101056.28
2023-11-21T19:31:20.684Z,101063.53
2023-11-21T19:33:49.320Z,101085.53
2023-11-21T19:36:17.681Z,101070.94
2023-11-21T19:38:46.391Z,101093.34
2023-11-21T19:41:18.190Z,101089.94
2023-11-21T19:43:47.038Z,101098.88
2023-11-21T19:46:14.866Z,101097.53
2023-11-21T19:48:43.893Z,101105.03
2023-11-21T19:51:13.200Z,101109.78
2023-11-21T19:53:41.022Z,101127.03
2023-11-21T19:56:11.933Z,101136.06
2023-11-21T19:58:43.098Z,101124.72
2023-11-21T20:01:11.265Z,101126.28
2023-11-21T20:03:40.153Z,101102.06
2023-11-21T20:06:08.183Z,101108.84
2023-11-21T20:08:36.956Z,101128.69
2023-11-21T20:11:05.417Z,101118.84
2023-11-21T20:13:33.737Z,101158.28
2023-11-21T20:16:01.289Z,101129.16
2023-11-21T20:18:32.054Z,101124.00
2023-11-21T20:21:00.030Z,101155.28
2023-11-21T20:23:32.663Z,101160.63
2023-11-21T20:26:00.438Z,101137.78
2023-11-21T20:28:28.794Z,101155.00
2023-11-21T20:30:58.180Z,101155.19
2023-11-21T20:33:26.359Z,101156.72
2023-11-21T20:35:53.829Z,101154.41
2023-11-21T20:38:23.602Z,101125.75
2023-11-21T20:40:51.165Z,101144.72
2023-11-21T20:43:18.888Z,101125.50
2023-11-21T20:45:46.245Z,101130.56
2023-11-21T20:48:15.161Z,101117.63
2023-11-21T20:50:45.356Z,101134.00
2023-11-21T20:53:13.398Z,101111.00
2023-11-21T20:55:41.794Z,101139.03
2023-11-21T20:58:12.667Z,101147.13
2023-11-21T21:00:40.073Z,101141.72
2023-11-21T21:03:08.414Z,101133.84
2023-11-21T21:05:39.116Z,101131.16
2023-11-21T21:08:07.648Z,101136.00
2023-11-21T21:10:35.453Z,101170.63
2023-11-21T21:13:03.670Z,101161.63
2023-11-21T21:15:31.013Z,101144.63
2023-11-21T21:17:58.803Z,101160.00
2023-11-21T21:20:26.919Z,101166.66
2023-11-21T21:22:54.749Z,101169.53
2023-11-21T21:25:22.060Z,101158.56
2023-11-21T21:27:50.271Z,101172.91
2023-11-21T21:30:17.709Z,101182.31
2023-11-21T21:32:45.326Z,101172.47
2023-11-21T21:35:13.942Z,101163.91
2023-11-21T21:37:41.839Z,101191.84
2023-11-21T21:40:09.834Z,101191.13
2023-11-21T21:42:37.677Z,101175.69
2023-11-21T21:45:05.536Z,101166.13
2023-11-21T21:47:33.295Z,101190.06
2023-11-21T21:50:01.116Z,101165.84
2023-11-21T21:52:36.600Z,101192.75
2023-11-21T21:55:05.562Z,101171.53
2023-11-21T21:57:33.507Z,101203.00
2023-11-21T22:00:00.852Z,101199.78
2023-11-21T22:02:28.806Z,101177.16
2023-11-21T22:04:56.609Z,101203.03
2023-11-21T22:07:24.466Z,101183.72
2023-11-21T22:09:52.684Z,101211.16
2023-11-21T22:12:23.024Z,101210.81
2023-11-21T22:14:50.468Z,101215.78
2023-11-21T22:17:18.195Z,101210.84
2023-11-21T22:19:45.661Z,101200.72
2023-11-21T22:22:13.537Z,101216.53
2023-11-21T22:24:41.097Z,101215.53
2023-11-21T22:27:08.685Z,101194.81
2023-11-21T22:29:37.608Z,101189.53
2023-11-21T22:32:08.690Z,101205.16
2023-11-21T22:34:36.226Z,101223.16
2023-11-21T22:37:04.245Z,101230.97
2023-11-21T22:39:31.797Z,101227.84
2023-11-21T22:41:59.467Z,101217.13
2023-11-21T22:44:26.990Z,101209.28
2023-11-21T22:46:54.805Z,101211.56
2023-11-21T22:49:23.159Z,101219.59
2023-11-21T22:51:50.782Z,101190.53
2023-11-21T22:54:18.103Z,101226.56
2023-11-21T22:56:45.772Z,101237.34
2023-11-21T22:59:13.317Z,101213.19
2023-11-21T23:01:41.091Z,101221.53
2023-11-21T23:04:09.909Z,101228.38
2023-11-21T23:06:37.708Z,101207.19
2023-11-21T23:09:05.112Z,101229.69
2023-11-21T23:11:32.916Z,101226.13
2023-11-21T23:14:00.457Z,101218.09
2023-11-21T23:16:28.148Z,101213.22
2023-11-21T23:18:55.571Z,101242.81
2023-11-21T23:21:23.294Z,101220.31
2023-11-21T23:23:50.745Z,101219.03
2023-11-21T23:26:19.421Z,101225.97
2023-11-21T23:28:47.006Z,101228.94
2023-11-21T23:31:15.322Z,101224.19
2023-11-21T23:33:42.900Z,101214.38
2023-11-21T23:36:10.667Z,101214.31
2023-11-21T23:38:41.847Z,101218.38
2023-11-21T23:41:09.932Z,101231.97
2023-11-21T23:43:37.307Z,101224.88
2023-11-21T23:46:05.779Z,101231.69
2023-11-21T23:48:33.224Z,101207.03
2023-11-21T23:51:00.987Z,101233.25
2023-11-21T23:53:28.423Z,101229.00
2023-11-21T23:55:56.175Z,101239.22
2023-11-21T23:58:23.523Z,101238.16
